Time;durP1;ratioP1;P1;durP2;ratioP2;P2;SDS_P1;SDS_P2;PMS_P1;PMS_P2;Temp;Humidity;BMP_temperature;BMP_pressure;BME280_temperature;BME280_humidity;BME280_pressure;Samples;Min_cycle;Max_cycle;Signal;HPM_P1;HPM_P2
2024/04/18 00:00:04;;;;;;;5.70;5.10;;;8.00;99.90;;;;;;5432955;26;20234;-67
2024/04/18 00:02:29;;;;;;;6.07;5.50;;;8.00;99.90;;;;;;5421933;26;20723;-68
2024/04/18 00:04:55;;;;;;;6.23;5.50;;;8.00;99.90;;;;;;5438181;26;20457;-68
2024/04/18 00:07:21;;;;;;;6.90;4.67;;;8.00;99.90;;;;;;5437709;26;20622;-68
2024/04/18 00:09:46;;;;;;;5.77;5.17;;;8.00;99.90;;;;;;5436785;26;20230;-68
2024/04/18 00:12:12;;;;;;;7.00;5.43;;;8.00;99.90;;;;;;5438030;26;20239;-68
2024/04/18 00:14:38;;;;;;;5.23;4.57;;;8.10;99.90;;;;;;5439986;26;20744;-68
2024/04/18 00:17:03;;;;;;;6.87;5.73;;;8.10;99.90;;;;;;5439527;26;20226;-69
2024/04/18 00:19:29;;;;;;;6.40;5.17;;;8.00;99.90;;;;;;5402949;26;21018;-69
2024/04/18 00:21:56;;;;;;;7.17;5.83;;;8.00;99.90;;;;;;5437543;26;20229;-69
2024/04/18 00:24:22;;;;;;;7.60;5.13;;;8.00;99.90;;;;;;5438483;26;20237;-68
2024/04/18 00:26:47;;;;;;;6.60;5.70;;;8.00;99.90;;;;;;5438938;26;20505;-68
2024/04/18 00:29:13;;;;;;;6.40;5.13;;;8.00;99.90;;;;;;5437105;26;20246;-68
2024/04/18 00:31:39;;;;;;;7.13;5.90;;;8.00;99.90;;;;;;5440552;26;20238;-68
2024/04/18 00:34:05;;;;;;;7.07;5.63;;;7.80;99.90;;;;;;5434810;26;20657;-68
2024/04/18 00:36:30;;;;;;;7.13;5.90;;;7.80;99.90;;;;;;5438498;26;20238;-68
2024/04/18 00:38:56;;;;;;;8.07;6.17;;;7.80;99.90;;;;;;5438801;26;20402;-68
2024/04/18 00:41:22;;;;;;;7.50;5.87;;;7.80;99.90;;;;;;5438347;26;20327;-68
2024/04/18 00:43:48;;;;;;;6.43;5.20;;;7.90;99.90;;;;;;5394218;26;20238;-69
2024/04/18 00:46:14;;;;;;;7.13;6.40;;;7.90;99.90;;;;;;5439283;26;20307;-69
2024/04/18 00:48:40;;;;;;;8.00;6.30;;;7.90;99.90;;;;;;5438253;26;20519;-69
2024/04/18 00:51:06;;;;;;;6.87;5.63;;;7.90;99.90;;;;;;5441122;26;20443;-68
2024/04/18 00:53:32;;;;;;;6.10;5.50;;;7.90;99.90;;;;;;5441548;26;20242;-68
2024/04/18 00:55:58;;;;;;;7.77;5.63;;;7.90;99.90;;;;;;5440397;26;21042;-68
2024/04/18 00:58:25;;;;;;;5.97;5.20;;;8.00;99.90;;;;;;5440262;26;20475;-69
2024/04/18 01:00:53;;;;;;;6.27;5.27;;;7.90;99.90;;;;;;5438169;26;20279;-69
2024/04/18 01:03:19;;;;;;;6.53;5.93;;;8.00;99.90;;;;;;5440391;26;20558;-68
2024/04/18 01:05:45;;;;;;;6.80;5.73;;;8.00;99.90;;;;;;5437399;26;20532;-69
2024/04/18 01:08:11;;;;;;;6.40;5.57;;;8.00;99.90;;;;;;5440771;26;20454;-69
2024/04/18 01:10:36;;;;;;;8.20;5.53;;;8.00;99.90;;;;;;5440794;26;20537;-68
2024/04/18 01:13:02;;;;;;;6.70;5.47;;;8.00;99.90;;;;;;5438959;26;20455;-68
2024/04/18 01:15:28;;;;;;;5.70;5.20;;;8.00;99.90;;;;;;5394813;26;20287;-69
2024/04/18 01:17:54;;;;;;;6.13;5.30;;;8.00;99.90;;;;;;5439287;26;20276;-68
2024/04/18 01:20:24;;;;;;;5.90;5.27;;;8.00;99.90;;;;;;5439054;26;20467;-68
2024/04/18 01:22:50;;;;;;;6.60;5.90;;;8.00;99.90;;;;;;5422091;26;20515;-68
2024/04/18 01:25:17;;;;;;;6.20;5.60;;;8.00;99.90;;;;;;5439365;26;20578;-68
2024/04/18 01:27:42;;;;;;;6.63;5.47;;;8.00;99.90;;;;;;5439156;26;20503;-68
2024/04/18 01:30:08;;;;;;;8.03;5.60;;;8.00;99.90;;;;;;5439145;26;20985;-68
2024/04/18 01:32:35;;;;;;;6.27;5.00;;;8.00;99.90;;;;;;5440618;26;20707;-68
2024/04/18 01:35:05;;;;;;;7.00;5.80;;;8.00;99.90;;;;;;5437269;26;20600;-68
2024/04/18 01:37:31;;;;;;;8.60;5.20;;;7.90;99.90;;;;;;5438813;26;20805;-67
2024/04/18 01:39:57;;;;;;;5.90;5.30;;;7.90;99.90;;;;;;5439554;26;20506;-68
2024/04/18 01:42:22;;;;;;;6.57;5.93;;;8.00;99.90;;;;;;5439321;26;20238;-68
2024/04/18 01:44:48;;;;;;;7.57;6.40;;;8.00;99.90;;;;;;5438426;26;20869;-68
2024/04/18 01:47:14;;;;;;;7.70;6.93;;;8.00;99.90;;;;;;5438611;26;20384;-69
2024/04/18 01:49:40;;;;;;;9.00;6.80;;;8.00;99.90;;;;;;5407664;26;20322;-68
2024/04/18 01:52:06;;;;;;;8.07;7.27;;;8.00;99.90;;;;;;5438630;26;20237;-68
2024/04/18 01:54:35;;;;;;;11.97;9.17;;;8.00;99.90;;;;;;5439969;26;20623;-68
2024/04/18 01:57:01;;;;;;;9.83;7.73;;;7.80;99.90;;;;;;5439149;26;20832;-68
2024/04/18 01:59:26;;;;;;;7.00;6.30;;;7.80;99.90;;;;;;5439082;26;20512;-68
2024/04/18 02:01:55;;;;;;;7.40;6.13;;;7.80;99.90;;;;;;5436250;26;20452;-68
2024/04/18 02:04:21;;;;;;;7.73;6.50;;;7.80;99.90;;;;;;5407161;26;20273;-68
2024/04/18 02:06:49;;;;;;;7.67;6.20;;;7.90;99.90;;;;;;5437905;26;20534;-68
2024/04/18 02:09:15;;;;;;;9.00;6.40;;;7.90;99.90;;;;;;5437827;26;20234;-68
2024/04/18 02:11:41;;;;;;;7.00;6.20;;;7.90;99.90;;;;;;5436609;26;20511;-68
2024/04/18 02:14:07;;;;;;;8.40;7.70;;;7.90;99.90;;;;;;5438393;26;20238;-68
2024/04/18 02:16:33;;;;;;;7.90;6.57;;;7.90;99.90;;;;;;5439225;26;20522;-68
2024/04/18 02:18:58;;;;;;;7.73;6.93;;;7.90;99.90;;;;;;5436897;26;20514;-68
2024/04/18 02:21:24;;;;;;;7.30;6.23;;;7.90;99.90;;;;;;5438293;26;20280;-68
2024/04/18 02:23:51;;;;;;;7.20;6.30;;;7.90;99.90;;;;;;5439194;26;20233;-68
2024/04/18 02:26:17;;;;;;;8.00;6.20;;;7.80;99.90;;;;;;5437092;26;20276;-68
2024/04/18 02:28:42;;;;;;;9.73;6.23;;;7.60;99.90;;;;;;5438444;26;20455;-68
2024/04/18 02:31:09;;;;;;;7.53;6.73;;;7.60;99.90;;;;;;5437099;26;20346;-68
2024/04/18 02:33:34;;;;;;;8.07;6.83;;;7.50;99.90;;;;;;5437158;26;20455;-68
2024/04/18 02:36:00;;;;;;;7.80;5.77;;;7.60;99.90;;;;;;5435965;26;20354;-68
2024/04/18 02:38:28;;;;;;;6.67;5.67;;;7.60;99.90;;;;;;5408482;26;20321;-68
2024/04/18 02:41:03;;;;;;;6.77;5.97;;;7.60;99.90;;;;;;5436464;26;20233;-68
2024/04/18 02:43:29;;;;;;;5.70;5.10;;;7.70;99.90;;;;;;5438319;26;20462;-68
2024/04/18 02:45:55;;;;;;;6.80;5.90;;;7.70;99.90;;;;;;5435703;26;20513;-68
2024/04/18 02:48:21;;;;;;;4.97;4.50;;;7.80;99.90;;;;;;5436552;26;20238;-68
2024/04/18 02:50:46;;;;;;;8.33;5.43;;;7.80;99.90;;;;;;5438050;26;20661;-68
2024/04/18 02:53:12;;;;;;;5.63;4.97;;;7.80;99.90;;;;;;5437408;26;20234;-68
2024/04/18 02:55:38;;;;;;;6.23;5.10;;;7.80;99.90;;;;;;5439076;26;20230;-68
2024/04/18 02:58:03;;;;;;;5.07;4.33;;;7.80;99.90;;;;;;5435727;26;20234;-68
2024/04/18 03:00:29;;;;;;;5.10;4.60;;;7.80;99.90;;;;;;5437934;26;20964;-69
2024/04/18 03:02:55;;;;;;;6.13;4.53;;;7.80;99.90;;;;;;5435528;26;20234;-68
2024/04/18 03:05:20;;;;;;;6.40;4.90;;;7.70;99.90;;;;;;5437466;26;20916;-68
2024/04/18 03:07:46;;;;;;;5.43;4.93;;;7.70;99.90;;;;;;5433819;26;20349;-68
2024/04/18 03:10:12;;;;;;;6.83;5.93;;;7.70;99.90;;;;;;5436256;26;20280;-68
2024/04/18 03:12:37;;;;;;;6.30;5.03;;;7.70;99.90;;;;;;5407307;26;20237;-68
2024/04/18 03:15:03;;;;;;;6.10;4.70;;;7.80;99.90;;;;;;5436672;26;20304;-68
2024/04/18 03:17:29;;;;;;;6.50;5.50;;;7.70;99.90;;;;;;5437602;26;21047;-68
2024/04/18 03:19:54;;;;;;;6.40;5.10;;;7.70;99.90;;;;;;5434963;26;20455;-68
2024/04/18 03:22:20;;;;;;;6.33;5.03;;;7.70;99.90;;;;;;5439205;26;20234;-68
2024/04/18 03:24:46;;;;;;;5.37;4.87;;;7.70;99.90;;;;;;5435711;26;20327;-68
2024/04/18 03:27:12;;;;;;;6.33;4.90;;;7.70;99.90;;;;;;5434136;26;20230;-68
2024/04/18 03:29:37;;;;;;;6.10;4.73;;;7.70;99.90;;;;;;5437208;26;20234;-68
2024/04/18 03:32:03;;;;;;;6.97;4.80;;;7.70;99.90;;;;;;5402655;26;20275;-68
2024/04/18 03:34:29;;;;;;;6.00;5.40;;;7.70;99.90;;;;;;5435874;26;20285;-68
2024/04/18 03:36:55;;;;;;;8.47;5.50;;;7.80;99.90;;;;;;5434442;26;20908;-68
2024/04/18 03:39:21;;;;;;;7.03;4.90;;;7.70;99.90;;;;;;5436364;26;20677;-68
2024/04/18 03:41:47;;;;;;;12.20;4.80;;;7.70;99.90;;;;;;5432578;26;20238;-68
2024/04/18 03:44:13;;;;;;;7.20;5.17;;;7.70;99.90;;;;;;5423417;26;20789;-68
2024/04/18 03:46:39;;;;;;;7.10;5.47;;;7.70;99.90;;;;;;5435723;26;20515;-68
2024/04/18 03:49:07;;;;;;;8.80;5.33;;;7.60;99.90;;;;;;5434650;26;20794;-68
2024/04/18 03:51:34;;;;;;;7.40;5.90;;;7.60;99.90;;;;;;5436371;26;20578;-68
2024/04/18 03:54:00;;;;;;;8.50;6.07;;;7.50;99.90;;;;;;5433475;26;20457;-68
2024/04/18 03:56:25;;;;;;;5.53;5.03;;;7.50;99.90;;;;;;5436477;26;21488;-68
2024/04/18 03:58:52;;;;;;;6.20;5.50;;;7.50;99.90;;;;;;5435471;26;20459;-68
2024/04/18 04:01:18;;;;;;;6.43;5.03;;;7.60;99.90;;;;;;5434124;26;20747;-68
2024/04/18 04:03:44;;;;;;;7.03;5.50;;;7.60;99.90;;;;;;5436698;26;20527;-68
2024/04/18 04:06:09;;;;;;;6.30;5.33;;;7.70;99.90;;;;;;5435064;26;20514;-68
2024/04/18 04:08:35;;;;;;;7.70;4.97;;;7.70;99.90;;;;;;5435991;26;20229;-67
2024/04/18 04:11:01;;;;;;;7.30;5.70;;;7.70;99.90;;;;;;5432646;26;20569;-67
2024/04/18 04:13:26;;;;;;;8.53;5.67;;;7.70;99.90;;;;;;5436051;26;20233;-68
2024/04/18 04:15:52;;;;;;;5.77;4.50;;;7.70;99.90;;;;;;5432737;26;20280;-68
2024/04/18 04:18:18;;;;;;;9.63;6.30;;;7.60;99.90;;;;;;5392953;26;20607;-68
2024/04/18 04:20:44;;;;;;;6.80;5.77;;;7.60;99.90;;;;;;5433733;26;20238;-68
2024/04/18 04:23:10;;;;;;;5.77;5.17;;;7.70;99.90;;;;;;5434440;26;20250;-68
2024/04/18 04:25:35;;;;;;;9.40;6.30;;;7.60;99.90;;;;;;5436196;26;20463;-68
2024/04/18 04:28:01;;;;;;;6.93;5.53;;;7.60;99.90;;;;;;5433420;26;20450;-68
2024/04/18 04:30:27;;;;;;;9.43;4.90;;;7.60;99.90;;;;;;5435217;26;20272;-67
2024/04/18 04:32:52;;;;;;;6.00;5.40;;;7.60;99.90;;;;;;5431793;26;20313;-68
2024/04/18 04:35:18;;;;;;;6.10;5.60;;;7.60;99.90;;;;;;5434712;26;20229;-68
2024/04/18 04:37:44;;;;;;;5.90;5.20;;;7.60;99.90;;;;;;5432637;26;20268;-68
2024/04/18 04:40:09;;;;;;;5.40;4.90;;;7.60;99.90;;;;;;5436085;26;20238;-68
2024/04/18 04:42:35;;;;;;;6.10;5.50;;;7.50;99.90;;;;;;5435099;26;20234;-68
2024/04/18 04:45:01;;;;;;;7.00;5.23;;;7.60;99.90;;;;;;5397247;26;20324;-68
2024/04/18 04:47:26;;;;;;;7.40;5.70;;;7.50;99.90;;;;;;5435463;26;20230;-68
2024/04/18 04:49:52;;;;;;;5.97;5.37;;;7.60;99.90;;;;;;5389324;26;20323;-68
2024/04/18 04:52:18;;;;;;;8.50;6.20;;;7.60;99.90;;;;;;5396211;26;20230;-68
2024/04/18 04:54:46;;;;;;;8.50;6.27;;;7.60;99.90;;;;;;5435813;26;20459;-68
2024/04/18 04:57:13;;;;;;;7.80;6.00;;;7.60;99.90;;;;;;5437697;26;20659;-68
2024/04/18 04:59:39;;;;;;;5.50;5.00;;;7.50;99.90;;;;;;5435890;26;21086;-68
2024/04/18 05:02:05;;;;;;;7.13;5.57;;;7.50;99.90;;;;;;5435527;26;20553;-68
2024/04/18 05:04:31;;;;;;;6.57;5.90;;;7.50;99.90;;;;;;5438364;26;20459;-68
2024/04/18 05:06:57;;;;;;;8.00;6.40;;;7.50;99.90;;;;;;5403577;26;20443;-68
2024/04/18 05:09:22;;;;;;;9.40;5.40;;;7.40;99.90;;;;;;5431581;26;20259;-68
2024/04/18 05:11:49;;;;;;;7.63;5.50;;;7.40;99.90;;;;;;5435893;26;20277;-68
2024/04/18 05:14:15;;;;;;;5.83;5.33;;;7.50;99.90;;;;;;5438946;26;20241;-68
2024/04/18 05:16:40;;;;;;;7.97;5.87;;;7.50;99.90;;;;;;5435908;26;20443;-68
2024/04/18 05:19:06;;;;;;;7.00;5.13;;;7.50;99.90;;;;;;5435735;26;20499;-68
2024/04/18 05:21:32;;;;;;;6.60;5.57;;;7.50;99.90;;;;;;5437122;26;20233;-68
2024/04/18 05:23:58;;;;;;;6.97;5.30;;;7.60;99.90;;;;;;5431633;26;20284;-68
2024/04/18 05:26:31;;;;;;;6.60;4.73;;;7.60;99.90;;;;;;5437320;26;20284;-68
2024/04/18 05:31:42;;;;;;;6.23;4.37;;;7.60;99.90;;;;;;5437703;26;20555;-68
2024/04/18 05:34:07;;;;;;;4.97;4.17;;;7.60;99.90;;;;;;5435776;26;20480;-68
2024/04/18 05:36:33;;;;;;;6.07;5.47;;;7.70;99.90;;;;;;5439408;26;20234;-68
2024/04/18 05:38:59;;;;;;;6.40;4.63;;;7.70;99.90;;;;;;5432887;26;20279;-69
2024/04/18 05:41:28;;;;;;;6.40;4.40;;;7.70;99.90;;;;;;5437023;26;20460;-68
2024/04/18 05:43:53;;;;;;;5.60;4.73;;;7.80;99.90;;;;;;5429157;26;20599;-68
2024/04/18 05:46:19;;;;;;;7.43;4.70;;;7.70;99.90;;;;;;5438586;26;20460;-67
2024/04/18 05:48:45;;;;;;;8.43;4.27;;;7.80;99.90;;;;;;5434352;26;20680;-68
2024/04/18 05:51:11;;;;;;;4.70;3.80;;;7.80;99.90;;;;;;5435819;26;20931;-68
2024/04/18 05:53:36;;;;;;;4.93;3.80;;;7.80;99.90;;;;;;5436746;26;20238;-68
2024/04/18 05:56:02;;;;;;;6.07;3.90;;;7.80;99.90;;;;;;5432864;26;20258;-68
2024/04/18 05:58:29;;;;;;;4.87;3.43;;;7.80;99.90;;;;;;5436180;26;20234;-68
2024/04/18 06:00:55;;;;;;;5.83;3.50;;;7.70;99.90;;;;;;5427931;26;20309;-68
2024/04/18 06:03:21;;;;;;;7.50;3.00;;;7.70;99.90;;;;;;5438330;26;20455;-68
2024/04/18 06:05:47;;;;;;;6.00;3.67;;;7.70;99.90;;;;;;5432694;26;20581;-68
2024/04/18 06:08:13;;;;;;;3.87;3.43;;;7.70;99.90;;;;;;5435380;26;20467;-68
2024/04/18 06:10:40;;;;;;;5.57;3.70;;;7.70;99.90;;;;;;5436609;26;20242;-68
2024/04/18 06:13:07;;;;;;;4.90;3.90;;;7.70;99.90;;;;;;5434047;26;20519;-68
2024/04/18 06:15:34;;;;;;;7.80;3.80;;;7.70;99.90;;;;;;5433024;26;20515;-68
2024/04/18 06:18:00;;;;;;;4.53;3.97;;;7.80;99.90;;;;;;5389363;26;20502;-68
2024/04/18 06:20:27;;;;;;;6.17;3.40;;;7.80;99.90;;;;;;5405300;26;20479;-68
2024/04/18 06:22:53;;;;;;;9.30;3.33;;;7.80;99.90;;;;;;5431630;26;20518;-68
2024/04/18 06:25:18;;;;;;;5.30;3.40;;;7.80;99.90;;;;;;5433114;26;20443;-68
2024/04/18 06:27:44;;;;;;;4.70;3.33;;;7.90;99.90;;;;;;5425275;26;20281;-68
2024/04/18 06:30:10;;;;;;;9.63;3.97;;;7.90;99.90;;;;;;5435807;26;20289;-69
2024/04/18 06:32:39;;;;;;;4.07;2.90;;;7.90;99.90;;;;;;5437076;26;20501;-68
2024/04/18 06:35:05;;;;;;;3.13;2.53;;;7.80;99.90;;;;;;5432037;26;20892;-68
2024/04/18 06:37:31;;;;;;;4.87;3.77;;;7.90;99.90;;;;;;5440456;26;20467;-68
2024/04/18 06:39:57;;;;;;;4.47;3.30;;;7.90;99.90;;;;;;5437387;26;20303;-68
2024/04/18 06:42:23;;;;;;;6.20;3.87;;;7.80;99.90;;;;;;5434299;26;20457;-68
2024/04/18 06:44:49;;;;;;;6.27;3.20;;;7.80;99.90;;;;;;5421615;26;20782;-68
2024/04/18 06:47:15;;;;;;;3.03;2.40;;;7.90;99.90;;;;;;5433340;26;20447;-68
2024/04/18 06:49:40;;;;;;;7.73;3.47;;;7.80;99.90;;;;;;5433209;26;20234;-68
2024/04/18 06:52:06;;;;;;;4.23;3.33;;;7.80;99.90;;;;;;5438691;26;20233;-68
2024/04/18 06:54:31;;;;;;;4.60;3.00;;;7.80;99.90;;;;;;5437672;26;20234;-67
2024/04/18 06:56:57;;;;;;;5.23;3.50;;;7.80;99.90;;;;;;5437040;26;20246;-68
2024/04/18 06:59:23;;;;;;;4.10;2.70;;;8.00;99.90;;;;;;5439490;26;20234;-68
2024/04/18 07:01:48;;;;;;;3.77;2.50;;;8.00;99.90;;;;;;5438206;26;20260;-68
2024/04/18 07:04:14;;;;;;;5.97;2.83;;;8.00;99.90;;;;;;5437359;26;20716;-68
2024/04/18 07:06:40;;;;;;;4.30;2.93;;;8.10;99.90;;;;;;5438013;26;20230;-68
2024/04/18 07:09:06;;;;;;;5.40;2.67;;;8.20;99.90;;;;;;5436993;26;20226;-68
2024/04/18 07:11:31;;;;;;;5.70;2.80;;;8.30;99.90;;;;;;5438959;26;20280;-68
2024/04/18 07:13:57;;;;;;;4.47;2.87;;;8.30;99.90;;;;;;5437060;26;20526;-68
2024/04/18 07:16:23;;;;;;;4.30;2.90;;;8.40;99.90;;;;;;5439564;26;20788;-68
2024/04/18 07:18:49;;;;;;;6.80;3.03;;;8.40;99.90;;;;;;5437788;26;20229;-67
2024/04/18 07:21:15;;;;;;;5.50;2.50;;;8.40;99.90;;;;;;5438294;26;20310;-68
2024/04/18 07:23:41;;;;;;;6.23;2.73;;;8.40;99.90;;;;;;5393587;26;20282;-68
2024/04/18 07:26:06;;;;;;;3.50;2.90;;;8.40;99.90;;;;;;5434237;26;20546;-68
2024/04/18 07:28:32;;;;;;;6.10;2.70;;;8.30;99.90;;;;;;5438141;26;20229;-68
2024/04/18 07:30:58;;;;;;;6.63;3.77;;;8.40;99.90;;;;;;5432221;26;20227;-68
2024/04/18 07:33:24;;;;;;;3.53;2.23;;;8.40;99.90;;;;;;5431567;26;20987;-68
2024/04/18 07:35:57;;;;;;;5.70;2.47;;;8.40;99.90;;;;;;5436126;26;20237;-68
2024/04/18 07:38:22;;;;;;;3.70;2.43;;;8.50;99.90;;;;;;5437316;26;20727;-68
2024/04/18 07:40:48;;;;;;;7.27;2.43;;;8.50;99.90;;;;;;5436841;26;20463;-68
2024/04/18 07:43:14;;;;;;;5.33;2.33;;;8.50;99.90;;;;;;5438247;26;20455;-68
2024/04/18 07:45:40;;;;;;;13.40;3.10;;;8.50;99.90;;;;;;5434619;26;20234;-68
2024/04/18 07:48:06;;;;;;;8.10;2.33;;;8.60;99.90;;;;;;5437246;26;20459;-68
2024/04/18 07:50:32;;;;;;;6.20;2.20;;;8.60;99.90;;;;;;5437432;26;20463;-68
2024/04/18 07:52:58;;;;;;;5.13;2.10;;;8.70;99.90;;;;;;5436167;26;20659;-68
2024/04/18 07:55:23;;;;;;;2.80;2.10;;;8.80;99.90;;;;;;5437840;26;20251;-68
2024/04/18 07:57:50;;;;;;;5.13;2.03;;;8.90;99.90;;;;;;5434822;26;20284;-68
2024/04/18 08:00:16;;;;;;;7.60;2.37;;;9.00;99.90;;;;;;5437036;26;20293;-68
2024/04/18 08:02:43;;;;;;;5.27;2.37;;;9.00;99.90;;;;;;5436564;26;20463;-68
2024/04/18 08:05:12;;;;;;;4.90;2.37;;;9.10;99.90;;;;;;5437113;26;20234;-68
2024/04/18 08:07:38;;;;;;;6.10;2.30;;;9.10;99.90;;;;;;5436688;26;20447;-68
2024/04/18 08:10:04;;;;;;;4.00;2.00;;;9.20;99.90;;;;;;5436133;26;20870;-68
2024/04/18 08:12:30;;;;;;;3.87;2.40;;;9.30;99.90;;;;;;5434885;26;20511;-68
2024/04/18 08:14:55;;;;;;;7.50;2.60;;;9.40;99.90;;;;;;5390941;26;20523;-68
2024/04/18 08:17:21;;;;;;;4.10;2.17;;;9.50;99.90;;;;;;5436500;26;20269;-68
2024/04/18 08:19:47;;;;;;;3.10;2.00;;;9.60;99.90;;;;;;5435074;26;20923;-68
2024/04/18 08:22:12;;;;;;;6.93;2.70;;;9.70;99.90;;;;;;5436261;26;20614;-68
2024/04/18 08:24:38;;;;;;;5.50;2.50;;;9.80;99.90;;;;;;5439112;26;20242;-68
2024/04/18 08:27:04;;;;;;;4.80;2.23;;;9.80;99.90;;;;;;5440455;26;20684;-68
2024/04/18 08:29:30;;;;;;;5.53;2.00;;;9.80;99.90;;;;;;5437420;26;20313;-68
2024/04/18 08:31:55;;;;;;;4.47;2.27;;;9.90;99.90;;;;;;5437731;26;20499;-68
2024/04/18 08:34:21;;;;;;;3.40;2.03;;;9.90;99.90;;;;;;5439249;26;20274;-68
2024/04/18 08:36:47;;;;;;;3.40;2.10;;;10.00;99.90;;;;;;5438206;26;21037;-68
2024/04/18 08:39:15;;;;;;;5.07;2.20;;;10.00;99.90;;;;;;5439168;26;20243;-68
2024/04/18 08:41:42;;;;;;;5.83;2.63;;;10.00;99.90;;;;;;5437196;26;20238;-68
2024/04/18 08:44:09;;;;;;;4.80;1.83;;;10.00;99.90;;;;;;5439692;26;21143;-68
2024/04/18 08:46:36;;;;;;;6.97;2.50;;;10.10;99.90;;;;;;5439167;26;20463;-68
2024/04/18 08:49:06;;;;;;;3.30;2.23;;;10.10;99.90;;;;;;5437346;26;21151;-68
2024/04/18 08:51:36;;;;;;;6.40;2.23;;;10.10;99.90;;;;;;5437422;26;20451;-68
2024/04/18 08:54:03;;;;;;;4.03;1.53;;;10.10;99.90;;;;;;5438308;26;21059;-68
2024/04/18 08:56:32;;;;;;;4.67;1.50;;;10.20;99.90;;;;;;5439119;26;20546;-68
2024/04/18 08:58:59;;;;;;;3.13;1.40;;;10.20;99.90;;;;;;5436480;26;20898;-68
2024/04/18 09:01:25;;;;;;;10.73;5.37;;;10.20;99.90;;;;;;5438869;26;21001;-68
2024/04/18 09:03:58;;;;;;;3.43;2.23;;;10.20;99.90;;;;;;5437027;26;20463;-68
2024/04/18 09:06:24;;;;;;;3.57;1.67;;;10.20;99.90;;;;;;5438093;26;20455;-68
2024/04/18 09:08:51;;;;;;;5.70;2.33;;;10.20;99.90;;;;;;5434665;26;21039;-68
2024/04/18 09:11:17;;;;;;;2.80;1.53;;;10.30;99.90;;;;;;5438204;26;20564;-68
2024/04/18 09:13:43;;;;;;;6.13;1.90;;;10.30;99.90;;;;;;5437609;26;20467;-68
2024/04/18 09:16:09;;;;;;;4.70;2.30;;;10.40;99.90;;;;;;5438721;26;20234;-68
2024/04/18 09:18:35;;;;;;;5.80;1.83;;;10.60;99.90;;;;;;5437939;26;20875;-68
2024/04/18 09:21:01;;;;;;;4.60;2.07;;;10.70;99.90;;;;;;5437096;26;20241;-68
2024/04/18 09:23:30;;;;;;;5.67;2.40;;;11.00;99.90;;;;;;5439409;26;20237;-68
2024/04/18 09:25:56;;;;;;;6.37;2.40;;;11.10;99.90;;;;;;5437398;26;20504;-68
2024/04/18 09:28:21;;;;;;;5.90;1.97;;;11.20;99.90;;;;;;5438677;26;20534;-68
2024/04/18 09:30:54;;;;;;;4.40;2.27;;;11.30;99.90;;;;;;5436497;26;20260;-68
2024/04/18 09:33:21;;;;;;;4.00;1.77;;;11.30;99.90;;;;;;5438711;26;20229;-68
2024/04/18 09:35:54;;;;;;;5.13;2.60;;;11.40;99.90;;;;;;5433583;26;20467;-68
2024/04/18 09:38:22;;;;;;;6.30;2.80;;;11.30;99.90;;;;;;5437822;26;20472;-68
2024/04/18 09:41:12;;;;;;;5.20;2.00;;;11.40;99.90;;;;;;5434756;26;20566;-68
2024/04/18 09:44:05;;;;;;;3.77;2.43;;;11.60;99.90;;;;;;5437043;26;21047;-68
2024/04/18 09:46:32;;;;;;;5.50;2.50;;;11.80;99.90;;;;;;5437420;26;20515;-68
2024/04/18 09:48:58;;;;;;;5.50;2.77;;;12.00;99.90;;;;;;5436461;26;20459;-68
2024/04/18 09:51:25;;;;;;;3.03;2.77;;;12.10;99.90;;;;;;5437457;26;20451;-68
2024/04/18 09:53:51;;;;;;;4.13;2.33;;;12.20;99.90;;;;;;5434038;26;20534;-68
2024/04/18 09:56:17;;;;;;;5.00;2.63;;;12.20;99.90;;;;;;5436707;26;20459;-68
2024/04/18 09:58:44;;;;;;;3.77;3.40;;;12.10;99.90;;;;;;5434924;26;20463;-68
2024/04/18 10:01:11;;;;;;;6.67;4.07;;;11.90;99.90;;;;;;5405175;26;21044;-68
2024/04/18 10:03:38;;;;;;;4.47;4.10;;;11.80;99.90;;;;;;5434871;26;20516;-68
2024/04/18 10:06:06;;;;;;;6.07;4.30;;;11.70;99.90;;;;;;5435848;26;20554;-68
2024/04/18 10:08:50;;;;;;;6.97;4.70;;;11.70;99.90;;;;;;5436436;26;20467;-68
2024/04/18 10:11:20;;;;;;;5.80;4.37;;;11.80;99.90;;;;;;5435114;26;20805;-68
2024/04/18 10:13:46;;;;;;;6.87;6.17;;;12.10;99.90;;;;;;5434869;26;20595;-68
2024/04/18 10:16:13;;;;;;;4.20;3.23;;;12.30;99.90;;;;;;5436766;26;20459;-69
2024/04/18 10:18:40;;;;;;;5.17;3.93;;;12.60;99.90;;;;;;5435354;26;20775;-68
2024/04/18 10:21:08;;;;;;;4.30;4.00;;;12.60;99.90;;;;;;5434912;26;20459;-69
2024/04/18 10:23:34;;;;;;;5.17;3.80;;;12.50;99.90;;;;;;5436460;26;20467;-68
2024/04/18 10:26:00;;;;;;;5.77;3.60;;;12.40;99.90;;;;;;5434717;26;20578;-68
2024/04/18 10:28:29;;;;;;;3.77;2.50;;;12.30;99.90;;;;;;5436097;26;20926;-68
2024/04/18 10:31:02;;;;;;;4.80;2.93;;;12.30;99.90;;;;;;5390902;26;20302;-69
2024/04/18 10:33:29;;;;;;;2.60;1.47;;;12.40;99.90;;;;;;5434083;26;21341;-68
2024/04/18 10:35:55;;;;;;;2.33;1.60;;;12.50;99.90;;;;;;5392402;26;20455;-69
2024/04/18 10:38:28;;;;;;;3.70;2.30;;;12.70;99.90;;;;;;5437523;26;21002;-68
2024/04/18 10:41:04;;;;;;;4.13;2.90;;;12.90;99.90;;;;;;5435262;26;20644;-69
2024/04/18 10:43:31;;;;;;;4.10;2.37;;;13.20;99.90;;;;;;5436054;26;20581;-69
2024/04/18 10:46:00;;;;;;;3.73;2.37;;;13.40;99.90;;;;;;5433878;26;20523;-69
2024/04/18 10:48:26;;;;;;;4.07;3.00;;;13.40;99.60;;;;;;5435733;26;20524;-69
2024/04/18 10:50:52;;;;;;;6.73;3.47;;;13.40;99.70;;;;;;5432322;26;20532;-69
2024/04/18 10:53:19;;;;;;;4.40;3.33;;;13.40;99.90;;;;;;5435677;26;20504;-68
2024/04/18 10:55:45;;;;;;;4.10;3.73;;;13.20;99.00;;;;;;5433708;26;20808;-69
2024/04/18 10:58:15;;;;;;;5.67;3.60;;;12.90;99.30;;;;;;5435986;26;20502;-68
2024/04/18 11:00:44;;;;;;;3.73;3.17;;;12.80;99.90;;;;;;5434454;26;20581;-68
2024/04/18 11:03:11;;;;;;;3.30;3.10;;;12.90;99.90;;;;;;5421788;26;20506;-68
2024/04/18 11:05:37;;;;;;;5.93;2.70;;;13.00;99.90;;;;;;5432997;26;20463;-69
2024/04/18 11:08:04;;;;;;;2.93;2.30;;;13.10;96.80;;;;;;5434177;26;20523;-69
2024/04/18 11:10:36;;;;;;;4.00;2.40;;;13.20;98.80;;;;;;5419231;26;20250;-67
2024/04/18 11:13:03;;;;;;;6.47;2.33;;;13.30;99.20;;;;;;5421031;26;20467;-67
2024/04/18 11:15:30;;;;;;;2.40;2.20;;;13.40;98.00;;;;;;5437641;26;20555;-67
2024/04/18 11:17:56;;;;;;;2.30;2.10;;;13.30;98.30;;;;;;5434343;26;21075;-67
2024/04/18 11:20:23;;;;;;;2.40;1.80;;;13.30;97.60;;;;;;5437332;26;20858;-67
2024/04/18 11:22:48;;;;;;;4.60;1.63;;;13.20;97.30;;;;;;5436527;26;20455;-67
2024/04/18 11:25:14;;;;;;;3.13;1.80;;;13.20;96.60;;;;;;5437549;26;21218;-67
2024/04/18 11:27:40;;;;;;;1.97;1.50;;;13.30;95.40;;;;;;5435834;26;20284;-67
2024/04/18 11:30:13;;;;;;;1.50;0.90;;;13.40;94.80;;;;;;5434166;26;20455;-67
2024/04/18 11:32:39;;;;;;;3.53;0.90;;;13.50;93.70;;;;;;5435577;26;20234;-67
2024/04/18 11:35:05;;;;;;;1.83;1.00;;;13.70;93.50;;;;;;5436567;26;21025;-67
2024/04/18 11:37:37;;;;;;;0.97;0.80;;;14.00;93.80;;;;;;5391881;26;20264;-67
2024/04/18 11:40:09;;;;;;;1.80;1.10;;;14.30;93.70;;;;;;5434597;26;20230;-67
2024/04/18 11:42:35;;;;;;;2.37;1.30;;;14.30;94.20;;;;;;5433644;26;21024;-67
2024/04/18 11:45:01;;;;;;;1.90;1.00;;;14.20;91.70;;;;;;5430889;26;20464;-67
2024/04/18 11:47:27;;;;;;;1.47;1.00;;;13.90;92.40;;;;;;5435560;26;20526;-67
2024/04/18 11:49:53;;;;;;;2.10;1.00;;;14.00;93.80;;;;;;5401684;26;20276;-67
2024/04/18 11:52:18;;;;;;;3.23;1.17;;;14.10;92.80;;;;;;5433813;26;20448;-67
2024/04/18 11:54:44;;;;;;;1.37;0.83;;;14.00;88.40;;;;;;5432725;26;20237;-67
2024/04/18 11:57:10;;;;;;;5.43;1.03;;;13.90;90.50;;;;;;5433652;26;20237;-67
2024/04/18 11:59:37;;;;;;;1.70;0.80;;;14.00;92.70;;;;;;5436899;26;20229;-67
2024/04/18 12:02:04;;;;;;;5.33;1.30;;;14.20;92.60;;;;;;5438667;26;20475;-67
2024/04/18 12:04:30;;;;;;;2.67;0.83;;;14.40;93.20;;;;;;5396837;26;20447;-67
2024/04/18 12:06:56;;;;;;;2.10;1.03;;;14.60;93.30;;;;;;5436998;26;20556;-67
2024/04/18 12:09:21;;;;;;;1.73;1.00;;;14.70;92.70;;;;;;5436727;26;20601;-67
2024/04/18 12:11:47;;;;;;;2.80;1.23;;;14.80;90.90;;;;;;5437787;26;20241;-67
2024/04/18 12:14:13;;;;;;;2.93;1.20;;;14.80;91.40;;;;;;5437986;26;20230;-67
2024/04/18 12:16:39;;;;;;;2.30;0.97;;;14.60;90.90;;;;;;5425653;26;20696;-67
2024/04/18 12:19:06;;;;;;;3.93;1.23;;;14.40;90.10;;;;;;5419443;26;20314;-67
2024/04/18 12:21:31;;;;;;;1.50;1.07;;;14.20;91.20;;;;;;5423561;26;20471;-67
2024/04/18 12:23:57;;;;;;;2.20;1.37;;;14.20;92.10;;;;;;5433057;26;20506;-67
2024/04/18 12:26:23;;;;;;;1.20;0.90;;;14.20;90.60;;;;;;5438081;26;20878;-67
2024/04/18 12:28:49;;;;;;;1.53;0.80;;;14.30;90.10;;;;;;5394402;26;20743;-67
2024/04/18 12:31:15;;;;;;;1.20;1.10;;;14.40;84.10;;;;;;5438374;26;20456;-67
2024/04/18 12:33:40;;;;;;;2.17;0.90;;;14.30;85.90;;;;;;5436181;26;20288;-67
2024/04/18 12:36:09;;;;;;;1.17;1.00;;;14.20;90.00;;;;;;5436266;26;20308;-68
2024/04/18 12:38:35;;;;;;;26.30;3.53;;;14.20;91.00;;;;;;5436862;26;20928;-67
2024/04/18 12:41:01;;;;;;;7.00;1.40;;;14.10;90.80;;;;;;5435373;26;20794;-67
2024/04/18 12:43:27;;;;;;;2.77;1.47;;;14.00;91.40;;;;;;5391691;26;20454;-67
2024/04/18 12:45:57;;;;;;;1.47;1.20;;;13.90;91.50;;;;;;5436022;26;20463;-67
2024/04/18 12:48:24;;;;;;;1.73;1.17;;;13.90;92.40;;;;;;5437710;26;20867;-67
2024/04/18 12:50:49;;;;;;;2.30;0.83;;;13.90;92.60;;;;;;5436405;26;20458;-67